sensor_id;sensor_type;location;lat;lon;timestamp;P1;durP1;ratioP1;P2;durP2;ratioP2
50671;SDS011;46021;55.882;37.654;2023-06-22T00:01:45;23.37;;;8.50;;
50671;SDS011;46021;55.882;37.654;2023-06-22T00:04:12;21.10;;;9.67;;
50671;SDS011;46021;55.882;37.654;2023-06-22T00:06:39;15.35;;;8.82;;
50671;SDS011;46021;55.882;37.654;2023-06-22T00:09:08;19.80;;;9.25;;
50671;SDS011;46021;55.882;37.654;2023-06-22T00:11:35;19.15;;;8.20;;
50671;SDS011;46021;55.882;37.654;2023-06-22T00:14:03;19.90;;;8.57;;
50671;SDS011;46021;55.882;37.654;2023-06-22T00:16:31;20.30;;;8.70;;
50671;SDS011;46021;55.882;37.654;2023-06-22T00:18:58;19.63;;;8.90;;
50671;SDS011;46021;55.882;37.654;2023-06-22T00:21:28;23.35;;;8.98;;
50671;SDS011;46021;55.882;37.654;2023-06-22T00:23:56;20.25;;;8.48;;
50671;SDS011;46021;55.882;37.654;2023-06-22T00:26:25;22.73;;;8.98;;
50671;SDS011;46021;55.882;37.654;2023-06-22T00:28:52;22.92;;;9.82;;
50671;SDS011;46021;55.882;37.654;2023-06-22T00:31:19;17.60;;;8.75;;
50671;SDS011;46021;55.882;37.654;2023-06-22T00:33:46;19.95;;;9.65;;
50671;SDS011;46021;55.882;37.654;2023-06-22T00:36:15;20.52;;;9.85;;
50671;SDS011;46021;55.882;37.654;2023-06-22T00:38:43;26.35;;;10.55;;
50671;SDS011;46021;55.882;37.654;2023-06-22T00:41:10;30.13;;;11.93;;
50671;SDS011;46021;55.882;37.654;2023-06-22T00:43:38;28.70;;;13.57;;
50671;SDS011;46021;55.882;37.654;2023-06-22T00:46:07;19.13;;;9.55;;
50671;SDS011;46021;55.882;37.654;2023-06-22T00:48:36;23.58;;;9.13;;
50671;SDS011;46021;55.882;37.654;2023-06-22T00:51:03;23.45;;;8.95;;
50671;SDS011;46021;55.882;37.654;2023-06-22T00:53:30;23.90;;;8.48;;
50671;SDS011;46021;55.882;37.654;2023-06-22T00:56:00;16.83;;;8.63;;
50671;SDS011;46021;55.882;37.654;2023-06-22T00:58:28;19.17;;;8.77;;
50671;SDS011;46021;55.882;37.654;2023-06-22T01:00:58;21.83;;;9.55;;
50671;SDS011;46021;55.882;37.654;2023-06-22T01:03:26;20.33;;;8.25;;
50671;SDS011;46021;55.882;37.654;2023-06-22T01:05:55;15.70;;;8.45;;
50671;SDS011;46021;55.882;37.654;2023-06-22T01:08:29;19.50;;;9.10;;
50671;SDS011;46021;55.882;37.654;2023-06-22T01:11:05;16.50;;;7.97;;
50671;SDS011;46021;55.882;37.654;2023-06-22T01:13:41;17.17;;;7.97;;
50671;SDS011;46021;55.882;37.654;2023-06-22T01:16:19;13.27;;;7.40;;
50671;SDS011;46021;55.882;37.654;2023-06-22T01:18:50;17.27;;;7.93;;
50671;SDS011;46021;55.882;37.654;2023-06-22T01:21:20;14.35;;;8.57;;
50671;SDS011;46021;55.882;37.654;2023-06-22T01:23:51;18.27;;;8.05;;
50671;SDS011;46021;55.882;37.654;2023-06-22T01:26:28;21.25;;;7.65;;
50671;SDS011;46021;55.882;37.654;2023-06-22T01:31:34;15.65;;;8.55;;
50671;SDS011;46021;55.882;37.654;2023-06-22T01:34:03;19.30;;;8.82;;
50671;SDS011;46021;55.882;37.654;2023-06-22T01:36:34;16.10;;;7.72;;
50671;SDS011;46021;55.882;37.654;2023-06-22T01:41:33;15.23;;;8.20;;
50671;SDS011;46021;55.882;37.654;2023-06-22T01:44:02;13.15;;;8.20;;
50671;SDS011;46021;55.882;37.654;2023-06-22T01:46:35;15.40;;;7.60;;
50671;SDS011;46021;55.882;37.654;2023-06-22T01:49:03;19.77;;;8.10;;
50671;SDS011;46021;55.882;37.654;2023-06-22T01:53:59;18.83;;;8.63;;
50671;SDS011;46021;55.882;37.654;2023-06-22T01:56:26;16.53;;;7.87;;
50671;SDS011;46021;55.882;37.654;2023-06-22T01:58:55;17.67;;;7.97;;
50671;SDS011;46021;55.882;37.654;2023-06-22T02:01:30;14.63;;;7.95;;
50671;SDS011;46021;55.882;37.654;2023-06-22T02:04:03;17.27;;;8.93;;
50671;SDS011;46021;55.882;37.654;2023-06-22T02:06:36;18.40;;;7.32;;
50671;SDS011;46021;55.882;37.654;2023-06-22T02:09:07;17.15;;;8.15;;
50671;SDS011;46021;55.882;37.654;2023-06-22T02:11:37;16.25;;;8.02;;
50671;SDS011;46021;55.882;37.654;2023-06-22T02:14:08;12.55;;;7.50;;
50671;SDS011;46021;55.882;37.654;2023-06-22T02:16:37;17.42;;;7.45;;
50671;SDS011;46021;55.882;37.654;2023-06-22T02:19:05;16.98;;;7.72;;
50671;SDS011;46021;55.882;37.654;2023-06-22T02:21:34;22.88;;;10.75;;
50671;SDS011;46021;55.882;37.654;2023-06-22T02:24:01;19.42;;;8.82;;
50671;SDS011;46021;55.882;37.654;2023-06-22T02:26:30;18.10;;;8.82;;
50671;SDS011;46021;55.882;37.654;2023-06-22T02:29:00;18.38;;;8.52;;
50671;SDS011;46021;55.882;37.654;2023-06-22T02:31:27;14.17;;;8.43;;
50671;SDS011;46021;55.882;37.654;2023-06-22T02:33:57;13.85;;;7.97;;
50671;SDS011;46021;55.882;37.654;2023-06-22T02:36:25;18.35;;;8.18;;
50671;SDS011;46021;55.882;37.654;2023-06-22T02:38:52;15.50;;;7.80;;
50671;SDS011;46021;55.882;37.654;2023-06-22T02:41:21;13.32;;;8.18;;
50671;SDS011;46021;55.882;37.654;2023-06-22T02:43:49;17.77;;;7.67;;
50671;SDS011;46021;55.882;37.654;2023-06-22T02:46:18;13.70;;;7.93;;
50671;SDS011;46021;55.882;37.654;2023-06-22T02:48:47;14.80;;;7.97;;
50671;SDS011;46021;55.882;37.654;2023-06-22T02:51:16;17.33;;;8.13;;
50671;SDS011;46021;55.882;37.654;2023-06-22T02:53:43;16.60;;;7.85;;
50671;SDS011;46021;55.882;37.654;2023-06-22T02:56:12;14.48;;;7.10;;
50671;SDS011;46021;55.882;37.654;2023-06-22T02:58:41;14.02;;;8.07;;
50671;SDS011;46021;55.882;37.654;2023-06-22T03:01:10;14.00;;;7.38;;
50671;SDS011;46021;55.882;37.654;2023-06-22T03:03:40;16.73;;;7.75;;
50671;SDS011;46021;55.882;37.654;2023-06-22T03:06:07;12.90;;;7.80;;
50671;SDS011;46021;55.882;37.654;2023-06-22T03:08:41;20.42;;;7.85;;
50671;SDS011;46021;55.882;37.654;2023-06-22T03:11:09;20.33;;;7.65;;
50671;SDS011;46021;55.882;37.654;2023-06-22T03:13:36;14.97;;;6.97;;
50671;SDS011;46021;55.882;37.654;2023-06-22T03:16:03;19.23;;;6.68;;
50671;SDS011;46021;55.882;37.654;2023-06-22T03:20:58;19.52;;;7.03;;
50671;SDS011;46021;55.882;37.654;2023-06-22T03:23:25;14.50;;;7.47;;
50671;SDS011;46021;55.882;37.654;2023-06-22T03:25:54;16.20;;;7.43;;
50671;SDS011;46021;55.882;37.654;2023-06-22T03:28:21;18.00;;;7.45;;
50671;SDS011;46021;55.882;37.654;2023-06-22T03:30:48;18.13;;;7.57;;
50671;SDS011;46021;55.882;37.654;2023-06-22T03:33:16;13.25;;;7.07;;
50671;SDS011;46021;55.882;37.654;2023-06-22T03:35:43;11.43;;;7.13;;
50671;SDS011;46021;55.882;37.654;2023-06-22T03:38:11;17.52;;;6.55;;
50671;SDS011;46021;55.882;37.654;2023-06-22T03:40:38;13.35;;;7.07;;
50671;SDS011;46021;55.882;37.654;2023-06-22T03:43:06;16.95;;;7.40;;
50671;SDS011;46021;55.882;37.654;2023-06-22T03:45:34;12.10;;;6.72;;
50671;SDS011;46021;55.882;37.654;2023-06-22T03:48:02;15.40;;;6.55;;
50671;SDS011;46021;55.882;37.654;2023-06-22T03:50:31;12.40;;;6.50;;
50671;SDS011;46021;55.882;37.654;2023-06-22T03:52:58;16.95;;;7.10;;
50671;SDS011;46021;55.882;37.654;2023-06-22T03:55:26;16.73;;;7.05;;
50671;SDS011;46021;55.882;37.654;2023-06-22T03:57:53;19.27;;;6.43;;
50671;SDS011;46021;55.882;37.654;2023-06-22T04:00:23;16.30;;;6.70;;
50671;SDS011;46021;55.882;37.654;2023-06-22T04:02:51;11.00;;;5.68;;
50671;SDS011;46021;55.882;37.654;2023-06-22T04:05:18;17.33;;;5.68;;
50671;SDS011;46021;55.882;37.654;2023-06-22T04:07:45;10.45;;;4.65;;
50671;SDS011;46021;55.882;37.654;2023-06-22T04:12:39;8.10;;;4.43;;
50671;SDS011;46021;55.882;37.654;2023-06-22T04:15:06;9.90;;;4.82;;
50671;SDS011;46021;55.882;37.654;2023-06-22T04:17:36;11.48;;;5.20;;
50671;SDS011;46021;55.882;37.654;2023-06-22T04:20:03;7.95;;;4.43;;
50671;SDS011;46021;55.882;37.654;2023-06-22T04:22:31;10.38;;;4.82;;
50671;SDS011;46021;55.882;37.654;2023-06-22T04:24:58;18.27;;;4.55;;
50671;SDS011;46021;55.882;37.654;2023-06-22T04:27:25;11.25;;;4.15;;
50671;SDS011;46021;55.882;37.654;2023-06-22T04:29:52;16.90;;;5.13;;
50671;SDS011;46021;55.882;37.654;2023-06-22T04:34:48;7.82;;;3.95;;
50671;SDS011;46021;55.882;37.654;2023-06-22T04:37:15;12.20;;;3.90;;
50671;SDS011;46021;55.882;37.654;2023-06-22T04:39:43;11.07;;;3.95;;
50671;SDS011;46021;55.882;37.654;2023-06-22T04:42:11;11.80;;;3.90;;
50671;SDS011;46021;55.882;37.654;2023-06-22T04:44:39;6.35;;;3.53;;
50671;SDS011;46021;55.882;37.654;2023-06-22T04:47:07;7.28;;;3.35;;
50671;SDS011;46021;55.882;37.654;2023-06-22T04:49:34;10.02;;;4.13;;
50671;SDS011;46021;55.882;37.654;2023-06-22T04:52:05;6.20;;;3.50;;
50671;SDS011;46021;55.882;37.654;2023-06-22T04:54:33;5.78;;;3.45;;
50671;SDS011;46021;55.882;37.654;2023-06-22T04:57:02;8.50;;;3.55;;
50671;SDS011;46021;55.882;37.654;2023-06-22T04:59:30;6.55;;;3.50;;
50671;SDS011;46021;55.882;37.654;2023-06-22T05:01:59;6.07;;;3.63;;
50671;SDS011;46021;55.882;37.654;2023-06-22T05:04:27;7.97;;;3.60;;
50671;SDS011;46021;55.882;37.654;2023-06-22T05:07:16;6.97;;;3.72;;
50671;SDS011;46021;55.882;37.654;2023-06-22T05:09:43;6.07;;;3.92;;
50671;SDS011;46021;55.882;37.654;2023-06-22T05:14:37;7.63;;;3.85;;
50671;SDS011;46021;55.882;37.654;2023-06-22T05:17:04;6.05;;;3.72;;
50671;SDS011;46021;55.882;37.654;2023-06-22T05:19:38;7.53;;;3.53;;
50671;SDS011;46021;55.882;37.654;2023-06-22T05:22:10;13.48;;;3.90;;
50671;SDS011;46021;55.882;37.654;2023-06-22T05:24:39;12.60;;;4.35;;
50671;SDS011;46021;55.882;37.654;2023-06-22T05:27:06;9.95;;;3.53;;
50671;SDS011;46021;55.882;37.654;2023-06-22T05:29:33;7.53;;;3.60;;
50671;SDS011;46021;55.882;37.654;2023-06-22T05:32:01;6.85;;;3.80;;
50671;SDS011;46021;55.882;37.654;2023-06-22T05:34:28;10.63;;;3.70;;
50671;SDS011;46021;55.882;37.654;2023-06-22T05:36:55;9.88;;;3.63;;
50671;SDS011;46021;55.882;37.654;2023-06-22T05:39:24;8.02;;;3.83;;
50671;SDS011;46021;55.882;37.654;2023-06-22T05:41:53;5.68;;;3.17;;
50671;SDS011;46021;55.882;37.654;2023-06-22T05:44:20;6.03;;;3.63;;
50671;SDS011;46021;55.882;37.654;2023-06-22T05:46:47;7.53;;;3.38;;
50671;SDS011;46021;55.882;37.654;2023-06-22T05:49:15;9.63;;;3.80;;
50671;SDS011;46021;55.882;37.654;2023-06-22T05:51:42;6.05;;;3.55;;
50671;SDS011;46021;55.882;37.654;2023-06-22T05:54:10;8.38;;;3.90;;
50671;SDS011;46021;55.882;37.654;2023-06-22T05:56:39;8.30;;;3.67;;
50671;SDS011;46021;55.882;37.654;2023-06-22T05:59:07;7.18;;;3.13;;
50671;SDS011;46021;55.882;37.654;2023-06-22T06:01:34;6.22;;;3.08;;
50671;SDS011;46021;55.882;37.654;2023-06-22T06:04:02;5.70;;;3.30;;
50671;SDS011;46021;55.882;37.654;2023-06-22T06:06:29;10.10;;;3.30;;
50671;SDS011;46021;55.882;37.654;2023-06-22T06:08:56;7.10;;;3.65;;
50671;SDS011;46021;55.882;37.654;2023-06-22T06:11:27;10.50;;;3.83;;
50671;SDS011;46021;55.882;37.654;2023-06-22T06:13:54;10.68;;;3.45;;
50671;SDS011;46021;55.882;37.654;2023-06-22T06:16:23;7.43;;;3.38;;
50671;SDS011;46021;55.882;37.654;2023-06-22T06:18:50;7.88;;;3.05;;
50671;SDS011;46021;55.882;37.654;2023-06-22T06:21:19;10.00;;;3.33;;
50671;SDS011;46021;55.882;37.654;2023-06-22T06:23:46;6.10;;;3.20;;
50671;SDS011;46021;55.882;37.654;2023-06-22T06:26:13;6.88;;;3.38;;
50671;SDS011;46021;55.882;37.654;2023-06-22T06:28:42;7.55;;;2.90;;
50671;SDS011;46021;55.882;37.654;2023-06-22T06:31:10;6.18;;;2.92;;
50671;SDS011;46021;55.882;37.654;2023-06-22T06:33:39;5.15;;;2.95;;
50671;SDS011;46021;55.882;37.654;2023-06-22T06:36:06;5.90;;;3.47;;
50671;SDS011;46021;55.882;37.654;2023-06-22T06:38:33;11.18;;;3.95;;
50671;SDS011;46021;55.882;37.654;2023-06-22T06:43:27;6.32;;;2.72;;
50671;SDS011;46021;55.882;37.654;2023-06-22T06:45:54;9.77;;;3.15;;
50671;SDS011;46021;55.882;37.654;2023-06-22T06:48:22;5.78;;;3.03;;
50671;SDS011;46021;55.882;37.654;2023-06-22T06:50:50;5.00;;;2.90;;
50671;SDS011;46021;55.882;37.654;2023-06-22T06:53:17;9.57;;;3.53;;
50671;SDS011;46021;55.882;37.654;2023-06-22T06:55:44;8.68;;;2.85;;
50671;SDS011;46021;55.882;37.654;2023-06-22T06:58:12;4.65;;;2.97;;
50671;SDS011;46021;55.882;37.654;2023-06-22T07:00:39;11.52;;;3.28;;
50671;SDS011;46021;55.882;37.654;2023-06-22T07:03:06;7.00;;;2.72;;
50671;SDS011;46021;55.882;37.654;2023-06-22T07:08:01;5.72;;;3.45;;
50671;SDS011;46021;55.882;37.654;2023-06-22T07:10:29;7.00;;;3.25;;
50671;SDS011;46021;55.882;37.654;2023-06-22T07:15:23;7.28;;;3.17;;
50671;SDS011;46021;55.882;37.654;2023-06-22T07:17:51;7.43;;;3.00;;
50671;SDS011;46021;55.882;37.654;2023-06-22T07:20:18;7.13;;;3.10;;
50671;SDS011;46021;55.882;37.654;2023-06-22T07:22:45;6.38;;;2.80;;
50671;SDS011;46021;55.882;37.654;2023-06-22T07:25:13;9.00;;;3.20;;
50671;SDS011;46021;55.882;37.654;2023-06-22T07:27:46;5.90;;;3.13;;
50671;SDS011;46021;55.882;37.654;2023-06-22T07:30:23;4.30;;;3.08;;
50671;SDS011;46021;55.882;37.654;2023-06-22T07:35:17;8.60;;;3.25;;
50671;SDS011;46021;55.882;37.654;2023-06-22T07:37:44;8.00;;;3.30;;
50671;SDS011;46021;55.882;37.654;2023-06-22T07:40:12;8.65;;;3.70;;
50671;SDS011;46021;55.882;37.654;2023-06-22T07:42:40;9.30;;;3.70;;
50671;SDS011;46021;55.882;37.654;2023-06-22T07:45:08;6.10;;;3.40;;
50671;SDS011;46021;55.882;37.654;2023-06-22T07:47:35;4.82;;;3.25;;
50671;SDS011;46021;55.882;37.654;2023-06-22T07:52:30;7.45;;;3.67;;
50671;SDS011;46021;55.882;37.654;2023-06-22T07:57:25;6.47;;;3.55;;
50671;SDS011;46021;55.882;37.654;2023-06-22T07:59:59;4.72;;;2.85;;
50671;SDS011;46021;55.882;37.654;2023-06-22T08:02:31;5.78;;;3.20;;
50671;SDS011;46021;55.882;37.654;2023-06-22T08:04:58;8.50;;;3.25;;
50671;SDS011;46021;55.882;37.654;2023-06-22T08:07:25;7.72;;;3.33;;
50671;SDS011;46021;55.882;37.654;2023-06-22T08:09:52;4.30;;;2.70;;
50671;SDS011;46021;55.882;37.654;2023-06-22T08:12:19;6.65;;;3.35;;
50671;SDS011;46021;55.882;37.654;2023-06-22T08:14:48;3.88;;;2.75;;
50671;SDS011;46021;55.882;37.654;2023-06-22T08:17:15;4.60;;;2.75;;
50671;SDS011;46021;55.882;37.654;2023-06-22T08:19:42;4.38;;;2.75;;
50671;SDS011;46021;55.882;37.654;2023-06-22T08:22:09;4.97;;;2.90;;
50671;SDS011;46021;55.882;37.654;2023-06-22T08:24:36;5.28;;;2.92;;
50671;SDS011;46021;55.882;37.654;2023-06-22T08:27:04;4.97;;;3.25;;
50671;SDS011;46021;55.882;37.654;2023-06-22T08:29:34;10.23;;;3.25;;
50671;SDS011;46021;55.882;37.654;2023-06-22T08:32:02;6.03;;;3.20;;
50671;SDS011;46021;55.882;37.654;2023-06-22T08:34:30;6.85;;;3.40;;
50671;SDS011;46021;55.882;37.654;2023-06-22T08:36:57;4.95;;;3.20;;
50671;SDS011;46021;55.882;37.654;2023-06-22T08:39:24;4.78;;;2.72;;
50671;SDS011;46021;55.882;37.654;2023-06-22T08:41:53;7.75;;;3.03;;
50671;SDS011;46021;55.882;37.654;2023-06-22T08:44:20;4.50;;;2.85;;
50671;SDS011;46021;55.882;37.654;2023-06-22T08:46:47;6.50;;;3.03;;
50671;SDS011;46021;55.882;37.654;2023-06-22T08:49:15;6.07;;;3.28;;
50671;SDS011;46021;55.882;37.654;2023-06-22T08:51:42;4.82;;;3.20;;
50671;SDS011;46021;55.882;37.654;2023-06-22T08:54:11;9.48;;;3.10;;
50671;SDS011;46021;55.882;37.654;2023-06-22T08:59:05;7.20;;;3.70;;
50671;SDS011;46021;55.882;37.654;2023-06-22T09:01:33;5.65;;;3.05;;
50671;SDS011;46021;55.882;37.654;2023-06-22T09:06:28;8.98;;;3.10;;
50671;SDS011;46021;55.882;37.654;2023-06-22T09:08:56;6.70;;;2.85;;
50671;SDS011;46021;55.882;37.654;2023-06-22T09:11:25;11.35;;;2.97;;
50671;SDS011;46021;55.882;37.654;2023-06-22T09:13:52;6.10;;;2.80;;
50671;SDS011;46021;55.882;37.654;2023-06-22T09:16:19;9.25;;;2.72;;
50671;SDS011;46021;55.882;37.654;2023-06-22T09:18:46;12.93;;;3.20;;
50671;SDS011;46021;55.882;37.654;2023-06-22T09:21:14;4.45;;;2.70;;
50671;SDS011;46021;55.882;37.654;2023-06-22T09:23:43;8.82;;;2.72;;
50671;SDS011;46021;55.882;37.654;2023-06-22T09:26:12;11.00;;;2.80;;
50671;SDS011;46021;55.882;37.654;2023-06-22T09:28:39;5.00;;;2.65;;
50671;SDS011;46021;55.882;37.654;2023-06-22T09:31:06;6.47;;;3.05;;
50671;SDS011;46021;55.882;37.654;2023-06-22T09:33:33;10.48;;;3.47;;
50671;SDS011;46021;55.882;37.654;2023-06-22T09:36:00;4.22;;;3.00;;
50671;SDS011;46021;55.882;37.654;2023-06-22T09:38:27;7.50;;;3.30;;
50671;SDS011;46021;55.882;37.654;2023-06-22T09:40:56;6.68;;;2.85;;
50671;SDS011;46021;55.882;37.654;2023-06-22T09:43:23;7.72;;;3.35;;
50671;SDS011;46021;55.882;37.654;2023-06-22T09:45:50;5.82;;;3.28;;
50671;SDS011;46021;55.882;37.654;2023-06-22T09:48:17;8.63;;;3.28;;
50671;SDS011;46021;55.882;37.654;2023-06-22T09:50:44;4.68;;;2.90;;
50671;SDS011;46021;55.882;37.654;2023-06-22T09:53:12;6.75;;;3.35;;
50671;SDS011;46021;55.882;37.654;2023-06-22T09:55:39;4.85;;;2.78;;
50671;SDS011;46021;55.882;37.654;2023-06-22T09:58:07;7.60;;;2.88;;
50671;SDS011;46021;55.882;37.654;2023-06-22T10:00:35;6.95;;;3.20;;
50671;SDS011;46021;55.882;37.654;2023-06-22T10:03:02;8.35;;;3.22;;
50671;SDS011;46021;55.882;37.654;2023-06-22T10:05:29;5.38;;;3.30;;
50671;SDS011;46021;55.882;37.654;2023-06-22T10:07:57;6.28;;;2.92;;
50671;SDS011;46021;55.882;37.654;2023-06-22T10:10:24;7.93;;;3.00;;
50671;SDS011;46021;55.882;37.654;2023-06-22T10:12:54;6.13;;;3.08;;
50671;SDS011;46021;55.882;37.654;2023-06-22T10:15:24;6.22;;;2.65;;
50671;SDS011;46021;55.882;37.654;2023-06-22T10:17:52;5.32;;;3.17;;
50671;SDS011;46021;55.882;37.654;2023-06-22T10:20:19;10.02;;;3.35;;
50671;SDS011;46021;55.882;37.654;2023-06-22T10:22:47;7.47;;;3.28;;
50671;SDS011;46021;55.882;37.654;2023-06-22T10:25:14;7.03;;;3.15;;
50671;SDS011;46021;55.882;37.654;2023-06-22T10:27:42;4.90;;;3.22;;
50671;SDS011;46021;55.882;37.654;2023-06-22T10:30:10;7.00;;;3.00;;
50671;SDS011;46021;55.882;37.654;2023-06-22T10:32:40;4.38;;;2.90;;
50671;SDS011;46021;55.882;37.654;2023-06-22T10:35:09;4.32;;;3.03;;
50671;SDS011;46021;55.882;37.654;2023-06-22T10:37:38;8.27;;;3.45;;
50671;SDS011;46021;55.882;37.654;2023-06-22T10:40:08;5.43;;;3.67;;
50671;SDS011;46021;55.882;37.654;2023-06-22T10:42:36;8.45;;;3.30;;
50671;SDS011;46021;55.882;37.654;2023-06-22T10:45:03;5.95;;;3.20;;
50671;SDS011;46021;55.882;37.654;2023-06-22T10:47:31;6.55;;;3.70;;
50671;SDS011;46021;55.882;37.654;2023-06-22T10:49:59;5.05;;;3.22;;
50671;SDS011;46021;55.882;37.654;2023-06-22T10:52:30;5.13;;;3.40;;
50671;SDS011;46021;55.882;37.654;2023-06-22T10:54:58;5.65;;;3.22;;
50671;SDS011;46021;55.882;37.654;2023-06-22T10:57:25;8.05;;;2.72;;
50671;SDS011;46021;55.882;37.654;2023-06-22T10:59:52;5.53;;;3.10;;
50671;SDS011;46021;55.882;37.654;2023-06-22T11:02:19;7.53;;;3.85;;
50671;SDS011;46021;55.882;37.654;2023-06-22T11:04:46;5.45;;;3.42;;
50671;SDS011;46021;55.882;37.654;2023-06-22T11:07:15;5.68;;;3.55;;
50671;SDS011;46021;55.882;37.654;2023-06-22T11:09:42;5.93;;;4.07;;
50671;SDS011;46021;55.882;37.654;2023-06-22T11:12:09;6.20;;;3.42;;
50671;SDS011;46021;55.882;37.654;2023-06-22T11:14:38;7.78;;;3.15;;
50671;SDS011;46021;55.882;37.654;2023-06-22T11:17:06;8.10;;;3.75;;
50671;SDS011;46021;55.882;37.654;2023-06-22T11:19:33;7.38;;;3.75;;
50671;SDS011;46021;55.882;37.654;2023-06-22T11:22:00;6.82;;;3.83;;
50671;SDS011;46021;55.882;37.654;2023-06-22T11:24:28;9.48;;;3.97;;
50671;SDS011;46021;55.882;37.654;2023-06-22T11:26:55;5.80;;;3.55;;
50671;SDS011;46021;55.882;37.654;2023-06-22T11:29:22;8.80;;;3.70;;
50671;SDS011;46021;55.882;37.654;2023-06-22T11:31:50;8.32;;;3.50;;
50671;SDS011;46021;55.882;37.654;2023-06-22T11:34:17;6.28;;;3.60;;
50671;SDS011;46021;55.882;37.654;2023-06-22T11:36:44;4.82;;;3.50;;
50671;SDS011;46021;55.882;37.654;2023-06-22T11:39:13;9.50;;;3.10;;
50671;SDS011;46021;55.882;37.654;2023-06-22T11:41:42;5.65;;;3.45;;
50671;SDS011;46021;55.882;37.654;2023-06-22T11:44:09;7.97;;;3.35;;
50671;SDS011;46021;55.882;37.654;2023-06-22T11:46:36;6.07;;;3.30;;
50671;SDS011;46021;55.882;37.654;2023-06-22T11:49:04;5.60;;;3.47;;
50671;SDS011;46021;55.882;37.654;2023-06-22T11:51:32;6.85;;;3.80;;
50671;SDS011;46021;55.882;37.654;2023-06-22T11:53:59;8.88;;;4.05;;
50671;SDS011;46021;55.882;37.654;2023-06-22T11:56:26;9.07;;;4.18;;
50671;SDS011;46021;55.882;37.654;2023-06-22T11:58:55;6.85;;;3.38;;
50671;SDS011;46021;55.882;37.654;2023-06-22T12:01:22;6.15;;;3.30;;
50671;SDS011;46021;55.882;37.654;2023-06-22T12:03:49;8.40;;;3.70;;
50671;SDS011;46021;55.882;37.654;2023-06-22T12:06:17;15.48;;;3.75;;
50671;SDS011;46021;55.882;37.654;2023-06-22T12:08:44;11.10;;;3.70;;
50671;SDS011;46021;55.882;37.654;2023-06-22T12:11:11;14.52;;;6.20;;
50671;SDS011;46021;55.882;37.654;2023-06-22T12:13:38;9.68;;;4.30;;
50671;SDS011;46021;55.882;37.654;2023-06-22T12:16:07;11.00;;;3.88;;
50671;SDS011;46021;55.882;37.654;2023-06-22T12:18:34;7.65;;;3.58;;
50671;SDS011;46021;55.882;37.654;2023-06-22T12:21:01;7.10;;;3.85;;
50671;SDS011;46021;55.882;37.654;2023-06-22T12:23:28;5.07;;;3.72;;
50671;SDS011;46021;55.882;37.654;2023-06-22T12:25:55;10.18;;;3.42;;
50671;SDS011;46021;55.882;37.654;2023-06-22T12:28:23;8.30;;;4.43;;
50671;SDS011;46021;55.882;37.654;2023-06-22T12:33:18;6.43;;;3.80;;
50671;SDS011;46021;55.882;37.654;2023-06-22T12:35:45;8.20;;;4.03;;
50671;SDS011;46021;55.882;37.654;2023-06-22T12:38:14;15.27;;;4.22;;
50671;SDS011;46021;55.882;37.654;2023-06-22T12:40:41;7.22;;;3.90;;
50671;SDS011;46021;55.882;37.654;2023-06-22T12:43:08;7.53;;;3.90;;
50671;SDS011;46021;55.882;37.654;2023-06-22T12:48:02;7.95;;;4.22;;
50671;SDS011;46021;55.882;37.654;2023-06-22T12:50:31;8.65;;;3.70;;
50671;SDS011;46021;55.882;37.654;2023-06-22T12:52:58;10.27;;;4.70;;
50671;SDS011;46021;55.882;37.654;2023-06-22T12:55:27;7.13;;;3.97;;
50671;SDS011;46021;55.882;37.654;2023-06-22T13:00:21;7.80;;;3.83;;
50671;SDS011;46021;55.882;37.654;2023-06-22T13:02:48;5.85;;;4.22;;
50671;SDS011;46021;55.882;37.654;2023-06-22T13:05:16;6.88;;;3.80;;
50671;SDS011;46021;55.882;37.654;2023-06-22T13:10:11;8.85;;;4.07;;
50671;SDS011;46021;55.882;37.654;2023-06-22T13:12:38;7.55;;;4.30;;
50671;SDS011;46021;55.882;37.654;2023-06-22T13:15:05;8.45;;;3.90;;
50671;SDS011;46021;55.882;37.654;2023-06-22T13:17:33;6.60;;;4.03;;
50671;SDS011;46021;55.882;37.654;2023-06-22T13:20:00;7.15;;;3.92;;
50671;SDS011;46021;55.882;37.654;2023-06-22T13:22:30;14.02;;;4.22;;
50671;SDS011;46021;55.882;37.654;2023-06-22T13:25:00;7.93;;;3.97;;
50671;SDS011;46021;55.882;37.654;2023-06-22T13:27:31;17.00;;;4.57;;
50671;SDS011;46021;55.882;37.654;2023-06-22T13:29:59;15.05;;;4.38;;
50671;SDS011;46021;55.882;37.654;2023-06-22T13:32:31;10.18;;;4.80;;
50671;SDS011;46021;55.882;37.654;2023-06-22T13:34:59;10.35;;;4.57;;
